VLG40JL LEMH-LEBL
Flight info
| Callsign | VLG40JL |
|---|---|
| Flight time | 0h 31m |
| Altitude | 16000 |
| Route | LUNIK Q255 OSTUR |
| Aircraft | A21N/M-SDE2E3FGHIRWXY/LB1 |
Departure
| Time | 2026-05-07 17:10 |
|---|---|
| Airport | Menorca Airport (LEMH) |
Arrival
| Time | 2026-05-07 17:42 |
|---|---|
| Airport | Josep Tarradellas Barcelona-El Prat Airport (LEBL) |
| Time | Latitude | Longitude | Altitude | Speed | Heading |
|---|---|---|---|---|---|
| 2026-05-07 16:51 | 39.86529 | 4.22425 | 292 ft | 0 kts | 99° |
| 2026-05-07 17:02 | 39.86532 | 4.22405 | 297 ft | 4 kts | 104° |
| 2026-05-07 17:02 | 39.86541 | 4.22372 | 298 ft | 4 kts | 117° |
| 2026-05-07 17:02 | 39.86556 | 4.22345 | 299 ft | 4 kts | 148° |
| 2026-05-07 17:03 | 39.86572 | 4.22339 | 299 ft | 0 kts | 189° |
| 2026-05-07 17:04 | 39.86567 | 4.22338 | 299 ft | 1 kts | 188° |
| 2026-05-07 17:05 | 39.86553 | 4.22335 | 299 ft | 3 kts | 188° |
| 2026-05-07 17:05 | 39.86530 | 4.22330 | 297 ft | 4 kts | 188° |
| 2026-05-07 17:05 | 39.86497 | 4.22323 | 294 ft | 6 kts | 189° |
| 2026-05-07 17:05 | 39.86450 | 4.22313 | 294 ft | 8 kts | 189° |
| 2026-05-07 17:06 | 39.86393 | 4.22300 | 294 ft | 9 kts | 189° |
| 2026-05-07 17:06 | 39.86324 | 4.22286 | 295 ft | 11 kts | 189° |
| 2026-05-07 17:06 | 39.86244 | 4.22269 | 293 ft | 12 kts | 189° |
| 2026-05-07 17:06 | 39.86184 | 4.22206 | 295 ft | 14 kts | 274° |
| 2026-05-07 17:07 | 39.86169 | 4.22084 | 303 ft | 16 kts | 190° |
| 2026-05-07 17:07 | 39.86052 | 4.22061 | 301 ft | 18 kts | 189° |
| 2026-05-07 17:07 | 39.85925 | 4.22034 | 302 ft | 19 kts | 189° |
| 2026-05-07 17:07 | 39.85791 | 4.22006 | 300 ft | 20 kts | 189° |
| 2026-05-07 17:08 | 39.85651 | 4.21978 | 296 ft | 21 kts | 189° |
| 2026-05-07 17:08 | 39.85506 | 4.21948 | 292 ft | 21 kts | 189° |
| 2026-05-07 17:08 | 39.85357 | 4.21918 | 287 ft | 22 kts | 189° |
| 2026-05-07 17:08 | 39.85204 | 4.21886 | 286 ft | 23 kts | 189° |
| 2026-05-07 17:09 | 39.85129 | 4.21791 | 294 ft | 17 kts | 280° |
| 2026-05-07 17:09 | 39.85159 | 4.21647 | 294 ft | 11 kts | 339° |
| 2026-05-07 17:09 | 39.85289 | 4.21665 | 291 ft | 41 kts | 9° |
| 2026-05-07 17:09 | 39.85819 | 4.21774 | 304 ft | 113 kts | 9° |
| 2026-05-07 17:10 | 39.86776 | 4.21967 | 495 ft | 150 kts | 12° |
| 2026-05-07 17:10 | 39.87805 | 4.22185 | 1174 ft | 153 kts | 11° |
| 2026-05-07 17:10 | 39.88918 | 4.22397 | 1697 ft | 170 kts | 15° |
| 2026-05-07 17:10 | 39.90189 | 4.22690 | 1915 ft | 204 kts | 14° |
| 2026-05-07 17:11 | 39.91686 | 4.23015 | 2315 ft | 231 kts | 12° |
| 2026-05-07 17:11 | 39.93349 | 4.23350 | 2850 ft | 251 kts | 12° |
| 2026-05-07 17:11 | 39.95106 | 4.23702 | 3569 ft | 260 kts | 12° |
| 2026-05-07 17:11 | 39.96903 | 4.24067 | 4472 ft | 262 kts | 12° |
| 2026-05-07 17:12 | 39.98719 | 4.24414 | 5340 ft | 268 kts | 6° |
| 2026-05-07 17:12 | 40.00564 | 4.23931 | 6136 ft | 279 kts | 334° |
| 2026-05-07 17:12 | 40.02012 | 4.22245 | 6902 ft | 285 kts | 302° |
| 2026-05-07 17:12 | 40.02672 | 4.19818 | 7670 ft | 288 kts | 274° |
| 2026-05-07 17:13 | 40.02422 | 4.17247 | 8443 ft | 288 kts | 247° |
| 2026-05-07 17:13 | 40.01316 | 4.15090 | 9180 ft | 288 kts | 221° |
| 2026-05-07 17:13 | 39.99840 | 4.13313 | 9948 ft | 293 kts | 229° |
| 2026-05-07 17:13 | 39.98916 | 4.10863 | 10339 ft | 314 kts | 256° |
| 2026-05-07 17:14 | 39.98775 | 4.07939 | 10646 ft | 334 kts | 269° |
| 2026-05-07 17:14 | 39.98874 | 4.04831 | 10974 ft | 352 kts | 275° |
| 2026-05-07 17:14 | 39.99596 | 4.01743 | 11518 ft | 361 kts | 297° |
| 2026-05-07 17:14 | 40.01111 | 3.99128 | 12251 ft | 364 kts | 314° |
| 2026-05-07 17:15 | 40.02904 | 3.96829 | 12947 ft | 368 kts | 316° |
| 2026-05-07 17:15 | 40.04733 | 3.94466 | 13657 ft | 372 kts | 315° |
| 2026-05-07 17:15 | 40.06553 | 3.92032 | 14315 ft | 377 kts | 313° |
| 2026-05-07 17:15 | 40.08372 | 3.89541 | 14936 ft | 381 kts | 313° |
| 2026-05-07 17:16 | 40.10191 | 3.87001 | 15618 ft | 384 kts | 312° |
| 2026-05-07 17:16 | 40.12008 | 3.84435 | 16286 ft | 387 kts | 311° |
| 2026-05-07 17:16 | 40.13847 | 3.81842 | 16926 ft | 390 kts | 311° |
| 2026-05-07 17:16 | 40.15702 | 3.79230 | 17543 ft | 395 kts | 311° |
| 2026-05-07 17:17 | 40.17591 | 3.76572 | 18091 ft | 401 kts | 311° |
| 2026-05-07 17:17 | 40.19508 | 3.73892 | 18619 ft | 406 kts | 311° |
| 2026-05-07 17:17 | 40.21432 | 3.71185 | 19186 ft | 408 kts | 310° |
| 2026-05-07 17:17 | 40.23367 | 3.68455 | 19759 ft | 410 kts | 310° |
| 2026-05-07 17:18 | 40.25313 | 3.65714 | 20327 ft | 412 kts | 310° |
| 2026-05-07 17:18 | 40.27272 | 3.62958 | 20879 ft | 414 kts | 310° |
| 2026-05-07 17:18 | 40.29235 | 3.60186 | 21403 ft | 416 kts | 310° |
| 2026-05-07 17:18 | 40.30536 | 3.58339 | 21705 ft | 417 kts | 310° |
| 2026-05-07 17:19 | 40.32504 | 3.55542 | 21916 ft | 413 kts | 310° |
| 2026-05-07 17:19 | 40.35035 | 3.51965 | 21952 ft | 400 kts | 310° |
| 2026-05-07 17:19 | 40.36921 | 3.49292 | 21946 ft | 400 kts | 310° |
| 2026-05-07 17:19 | 40.38806 | 3.46610 | 21938 ft | 399 kts | 310° |
| 2026-05-07 17:20 | 40.40079 | 3.44795 | 21930 ft | 399 kts | 309° |
| 2026-05-07 17:20 | 40.41954 | 3.42114 | 21935 ft | 399 kts | 309° |
| 2026-05-07 17:20 | 40.43827 | 3.39440 | 21942 ft | 395 kts | 309° |
| 2026-05-07 17:20 | 40.45670 | 3.36790 | 21924 ft | 392 kts | 309° |
| 2026-05-07 17:21 | 40.47499 | 3.34131 | 21928 ft | 392 kts | 309° |
| 2026-05-07 17:21 | 40.49309 | 3.31500 | 21938 ft | 393 kts | 309° |
| 2026-05-07 17:21 | 40.51138 | 3.28841 | 21942 ft | 393 kts | 309° |
| 2026-05-07 17:21 | 40.52974 | 3.26167 | 21941 ft | 392 kts | 308° |
| 2026-05-07 17:22 | 40.54798 | 3.23498 | 21927 ft | 392 kts | 309° |
| 2026-05-07 17:22 | 40.56625 | 3.20828 | 21942 ft | 393 kts | 309° |
| 2026-05-07 17:22 | 40.58451 | 3.18167 | 21934 ft | 393 kts | 309° |
| 2026-05-07 17:22 | 40.60288 | 3.15489 | 21932 ft | 393 kts | 309° |
| 2026-05-07 17:23 | 40.62119 | 3.12811 | 21937 ft | 392 kts | 308° |
| 2026-05-07 17:23 | 40.63925 | 3.10175 | 21648 ft | 385 kts | 309° |
| 2026-05-07 17:23 | 40.65695 | 3.07593 | 21225 ft | 382 kts | 309° |
| 2026-05-07 17:23 | 40.67462 | 3.05006 | 20746 ft | 379 kts | 308° |
| 2026-05-07 17:24 | 40.69215 | 3.02429 | 20232 ft | 377 kts | 308° |
| 2026-05-07 17:24 | 40.70962 | 2.99864 | 19743 ft | 374 kts | 308° |
| 2026-05-07 17:24 | 40.72699 | 2.97319 | 19282 ft | 371 kts | 309° |
| 2026-05-07 17:24 | 40.74421 | 2.94788 | 18835 ft | 369 kts | 308° |
| 2026-05-07 17:25 | 40.76126 | 2.92276 | 18390 ft | 366 kts | 308° |
| 2026-05-07 17:25 | 40.77804 | 2.89754 | 17911 ft | 363 kts | 305° |
| 2026-05-07 17:25 | 40.79178 | 2.86997 | 17454 ft | 357 kts | 297° |
| 2026-05-07 17:25 | 40.80412 | 2.84164 | 17006 ft | 354 kts | 297° |
| 2026-05-07 17:26 | 40.81624 | 2.81343 | 16558 ft | 352 kts | 297° |
| 2026-05-07 17:26 | 40.82835 | 2.78544 | 16123 ft | 350 kts | 297° |
| 2026-05-07 17:26 | 40.84041 | 2.75763 | 15714 ft | 348 kts | 297° |
| 2026-05-07 17:26 | 40.85229 | 2.73032 | 15323 ft | 346 kts | 297° |
| 2026-05-07 17:27 | 40.86425 | 2.70281 | 14923 ft | 344 kts | 297° |
| 2026-05-07 17:27 | 40.87617 | 2.67542 | 14532 ft | 343 kts | 298° |
| 2026-05-07 17:27 | 40.88801 | 2.64818 | 14129 ft | 341 kts | 299° |
| 2026-05-07 17:27 | 40.89979 | 2.62103 | 13727 ft | 338 kts | 299° |
| 2026-05-07 17:28 | 40.91146 | 2.59412 | 13280 ft | 336 kts | 299° |
| 2026-05-07 17:28 | 40.92303 | 2.56743 | 12859 ft | 333 kts | 299° |
| 2026-05-07 17:28 | 40.93449 | 2.54090 | 12442 ft | 331 kts | 299° |
| 2026-05-07 17:28 | 40.94574 | 2.51486 | 12022 ft | 330 kts | 299° |
| 2026-05-07 17:29 | 40.95712 | 2.48849 | 11622 ft | 330 kts | 299° |
| 2026-05-07 17:29 | 40.96846 | 2.46209 | 11208 ft | 330 kts | 299° |
| 2026-05-07 17:29 | 40.97980 | 2.43569 | 10822 ft | 328 kts | 300° |
| 2026-05-07 17:29 | 40.99090 | 2.40987 | 10573 ft | 316 kts | 300° |
| 2026-05-07 17:30 | 41.00159 | 2.38508 | 10400 ft | 303 kts | 300° |
| 2026-05-07 17:30 | 41.01182 | 2.36135 | 10186 ft | 292 kts | 299° |
| 2026-05-07 17:30 | 41.02122 | 2.33776 | 9824 ft | 287 kts | 297° |
| 2026-05-07 17:30 | 41.03010 | 2.31433 | 9412 ft | 282 kts | 296° |
| 2026-05-07 17:31 | 41.03886 | 2.29117 | 9039 ft | 280 kts | 297° |
| 2026-05-07 17:31 | 41.04752 | 2.26825 | 8690 ft | 277 kts | 297° |
| 2026-05-07 17:31 | 41.05602 | 2.24562 | 8367 ft | 273 kts | 297° |
| 2026-05-07 17:31 | 41.06442 | 2.22325 | 8047 ft | 268 kts | 296° |
| 2026-05-07 17:32 | 41.07052 | 2.20009 | 7749 ft | 266 kts | 277° |
| 2026-05-07 17:32 | 41.07104 | 2.17560 | 7449 ft | 266 kts | 268° |
| 2026-05-07 17:32 | 41.07027 | 2.15113 | 7160 ft | 264 kts | 267° |
| 2026-05-07 17:32 | 41.06952 | 2.12689 | 6862 ft | 263 kts | 268° |
| 2026-05-07 17:33 | 41.06884 | 2.10261 | 6566 ft | 264 kts | 268° |
| 2026-05-07 17:33 | 41.06821 | 2.07828 | 6269 ft | 264 kts | 268° |
| 2026-05-07 17:33 | 41.06764 | 2.05436 | 5976 ft | 263 kts | 268° |
| 2026-05-07 17:33 | 41.06707 | 2.03011 | 5679 ft | 263 kts | 268° |
| 2026-05-07 17:34 | 41.06652 | 2.00595 | 5388 ft | 262 kts | 268° |
| 2026-05-07 17:34 | 41.06597 | 1.98193 | 5119 ft | 258 kts | 268° |
| 2026-05-07 17:34 | 41.06544 | 1.95852 | 4881 ft | 251 kts | 268° |
| 2026-05-07 17:34 | 41.06492 | 1.93564 | 4892 ft | 248 kts | 268° |
| 2026-05-07 17:35 | 41.06446 | 1.91291 | 4970 ft | 248 kts | 270° |
| 2026-05-07 17:35 | 41.06782 | 1.89067 | 4910 ft | 249 kts | 298° |
| 2026-05-07 17:35 | 41.07924 | 1.87400 | 4769 ft | 246 kts | 330° |
| 2026-05-07 17:35 | 41.09465 | 1.86433 | 4585 ft | 246 kts | 339° |
| 2026-05-07 17:36 | 41.11048 | 1.85579 | 4367 ft | 245 kts | 339° |
| 2026-05-07 17:36 | 41.12621 | 1.84702 | 4142 ft | 245 kts | 338° |
| 2026-05-07 17:36 | 41.14324 | 1.83838 | 3916 ft | 269 kts | 346° |
| 2026-05-07 17:36 | 41.16155 | 1.83336 | 3675 ft | 268 kts | 351° |
| 2026-05-07 17:37 | 41.17967 | 1.82898 | 3417 ft | 266 kts | 351° |
| 2026-05-07 17:37 | 41.19780 | 1.82762 | 3175 ft | 255 kts | 13° |
| 2026-05-07 17:37 | 41.21309 | 1.83762 | 3050 ft | 250 kts | 46° |
| 2026-05-07 17:37 | 41.22224 | 1.85750 | 3016 ft | 256 kts | 68° |
| 2026-05-07 17:38 | 41.22924 | 1.87915 | 2932 ft | 254 kts | 69° |
| 2026-05-07 17:38 | 41.23601 | 1.90076 | 2812 ft | 252 kts | 64° |
| 2026-05-07 17:38 | 41.24311 | 1.92152 | 2523 ft | 239 kts | 65° |
| 2026-05-07 17:38 | 41.24975 | 1.94080 | 2180 ft | 220 kts | 66° |
| 2026-05-07 17:39 | 41.25592 | 1.95850 | 1880 ft | 198 kts | 66° |
| 2026-05-07 17:39 | 41.26129 | 1.97409 | 1721 ft | 173 kts | 67° |
| 2026-05-07 17:39 | 41.26586 | 1.98741 | 1479 ft | 146 kts | 66° |
| 2026-05-07 17:39 | 41.26983 | 1.99897 | 1265 ft | 133 kts | 67° |
| 2026-05-07 17:40 | 41.27366 | 2.01015 | 1073 ft | 133 kts | 67° |
| 2026-05-07 17:40 | 41.27745 | 2.02118 | 904 ft | 131 kts | 67° |
| 2026-05-07 17:40 | 41.28125 | 2.03225 | 731 ft | 131 kts | 67° |
| 2026-05-07 17:40 | 41.28497 | 2.04313 | 545 ft | 130 kts | 67° |
| 2026-05-07 17:41 | 41.28875 | 2.05414 | 359 ft | 131 kts | 67° |
| 2026-05-07 17:41 | 41.29250 | 2.06509 | 154 ft | 130 kts | 67° |
| 2026-05-07 17:41 | 41.29621 | 2.07595 | 30 ft | 127 kts | 66° |
| 2026-05-07 17:41 | 41.29954 | 2.08568 | 29 ft | 95 kts | 65° |
| 2026-05-07 17:42 | 41.30127 | 2.09128 | 22 ft | 39 kts | 84° |
| 2026-05-07 17:42 | 41.30129 | 2.09351 | 20 ft | 15 kts | 95° |
| 2026-05-07 17:42 | 41.30112 | 2.09415 | 21 ft | 7 kts | 140° |
| 2026-05-07 17:42 | 41.30060 | 2.09450 | 22 ft | 10 kts | 156° |
| 2026-05-07 17:43 | 41.29996 | 2.09481 | 22 ft | 9 kts | 182° |
| 2026-05-07 17:43 | 41.29952 | 2.09423 | 22 ft | 10 kts | 246° |
| 2026-05-07 17:43 | 41.29920 | 2.09329 | 22 ft | 12 kts | 246° |
| 2026-05-07 17:43 | 41.29882 | 2.09222 | 22 ft | 14 kts | 246° |
| 2026-05-07 17:44 | 41.29841 | 2.09100 | 22 ft | 15 kts | 246° |
| 2026-05-07 17:44 | 41.29795 | 2.08964 | 24 ft | 17 kts | 246° |
| 2026-05-07 17:44 | 41.29754 | 2.08846 | 24 ft | 13 kts | 245° |
| 2026-05-07 17:44 | 41.29714 | 2.08734 | 24 ft | 14 kts | 247° |
| 2026-05-07 17:45 | 41.29672 | 2.08606 | 24 ft | 16 kts | 247° |
| 2026-05-07 17:45 | 41.29625 | 2.08467 | 22 ft | 17 kts | 246° |
| 2026-05-07 17:45 | 41.29588 | 2.08360 | 24 ft | 5 kts | 246° |
| 2026-05-07 17:45 | 41.29571 | 2.08310 | 21 ft | 7 kts | 245° |
| 2026-05-07 17:46 | 41.29566 | 2.08241 | 21 ft | 8 kts | 278° |
| 2026-05-07 17:46 | 41.29548 | 2.08161 | 21 ft | 10 kts | 245° |
| 2026-05-07 17:46 | 41.29514 | 2.08069 | 22 ft | 12 kts | 244° |
| 2026-05-07 17:46 | 41.29478 | 2.07961 | 21 ft | 14 kts | 247° |
| 2026-05-07 17:47 | 41.29443 | 2.07861 | 22 ft | 7 kts | 234° |
| 2026-05-07 17:47 | 41.29388 | 2.07863 | 21 ft | 10 kts | 154° |
| 2026-05-07 17:47 | 41.29319 | 2.07907 | 24 ft | 13 kts | 156° |
| 2026-05-07 17:47 | 41.29247 | 2.07936 | 24 ft | 10 kts | 203° |
| 2026-05-07 17:48 | 41.29212 | 2.07866 | 24 ft | 8 kts | 246° |
| 2026-05-07 17:48 | 41.29181 | 2.07865 | 24 ft | 5 kts | 155° |
| 2026-05-07 17:48 | 41.29145 | 2.07888 | 24 ft | 4 kts | 157° |
| 2026-05-07 17:48 | 41.29135 | 2.07894 | 24 ft | 1 kts | 156° |
| 2026-05-07 17:49 | 41.29134 | 2.07894 | 24 ft | 0 kts | 156° |